createdAt,value
2019-02-15T00:01:31.095Z,66.19
2019-02-15T00:04:02.446Z,66.98
2019-02-15T00:06:33.734Z,67.11
2019-02-15T00:09:06.165Z,66.82
2019-02-15T00:11:37.446Z,66.87
2019-02-15T00:14:08.725Z,66.83
2019-02-15T00:16:40.015Z,66.59
2019-02-15T00:19:29.981Z,65.41
2019-02-15T00:22:01.538Z,65.51
2019-02-15T00:24:32.802Z,65.57
2019-02-15T00:27:04.050Z,65.45
2019-02-15T00:29:35.376Z,65.80
2019-02-15T00:32:06.657Z,67.96
2019-02-15T00:34:37.957Z,67.21
2019-02-15T00:37:09.520Z,66.68
2019-02-15T00:39:40.762Z,66.74
2019-02-15T00:42:12.023Z,64.94
2019-02-15T00:44:43.333Z,65.64
2019-02-15T00:47:42.431Z,65.56
2019-02-15T00:50:38.604Z,66.49
2019-02-15T00:53:25.353Z,65.94
2019-02-15T00:56:07.957Z,66.15
2019-02-15T00:58:57.316Z,65.77
2019-02-15T01:01:56.251Z,65.90
2019-02-15T01:04:52.258Z,65.29
2019-02-15T01:07:41.376Z,64.52
2019-02-15T01:10:34.418Z,65.62
2019-02-15T01:13:12.042Z,65.28
2019-02-15T01:15:43.293Z,65.96
2019-02-15T01:18:14.594Z,65.85
2019-02-15T01:20:45.764Z,66.46
2019-02-15T01:23:17.041Z,65.54
2019-02-15T01:26:09.788Z,64.79
2019-02-15T01:28:56.645Z,65.11
2019-02-15T01:31:49.677Z,65.16
2019-02-15T01:34:31.509Z,66.05
2019-02-15T01:37:15.506Z,65.22
2019-02-15T01:39:57.670Z,66.70
2019-02-15T01:42:50.551Z,65.50
2019-02-15T01:45:25.239Z,66.49
2019-02-15T01:47:56.397Z,66.04
2019-02-15T01:50:27.690Z,66.89
2019-02-15T01:52:58.976Z,66.50
2019-02-15T01:55:30.283Z,67.14
2019-02-15T01:58:01.582Z,67.23
2019-02-15T02:00:36.057Z,67.93
2019-02-15T02:03:07.320Z,67.45
2019-02-15T02:05:38.571Z,67.18
2019-02-15T02:08:12.808Z,66.16
2019-02-15T02:10:44.186Z,67.17
2019-02-15T02:13:15.635Z,66.64
2019-02-15T02:15:46.831Z,67.36
2019-02-15T02:18:18.116Z,64.84
2019-02-15T02:20:49.434Z,64.14
2019-02-15T02:23:20.758Z,65.97
2019-02-15T02:25:51.994Z,66.86
2019-02-15T02:28:23.315Z,67.13
2019-02-15T02:30:54.586Z,66.62
2019-02-15T02:33:25.890Z,65.53
2019-02-15T02:35:57.194Z,65.87
2019-02-15T02:38:28.443Z,66.22
2019-02-15T02:40:59.765Z,67.05
2019-02-15T02:43:31.328Z,65.27
2019-02-15T02:46:02.691Z,63.70
2019-02-15T02:48:33.948Z,65.14
2019-02-15T02:51:05.203Z,64.19
2019-02-15T02:53:36.558Z,65.77
2019-02-15T02:56:07.857Z,65.51
2019-02-15T02:58:39.161Z,66.17
2019-02-15T03:01:10.451Z,66.61
2019-02-15T03:03:41.697Z,67.13
2019-02-15T03:06:12.986Z,67.30
2019-02-15T03:08:44.186Z,68.84
2019-02-15T03:11:15.453Z,67.14
2019-02-15T03:13:46.717Z,66.84
2019-02-15T03:16:18.027Z,68.54
2019-02-15T03:18:49.376Z,69.64
2019-02-15T03:21:20.700Z,71.09
2019-02-15T03:23:51.946Z,70.97
2019-02-15T03:26:23.127Z,70.35
2019-02-15T03:28:54.370Z,69.82
2019-02-15T03:31:25.651Z,69.95
2019-02-15T03:33:56.917Z,70.63
2019-02-15T03:36:49.672Z,71.27
2019-02-15T03:39:28.506Z,72.20
2019-02-15T03:41:59.783Z,72.89
2019-02-15T03:44:31.088Z,73.91
2019-02-15T03:47:02.383Z,75.04
2019-02-15T03:49:33.693Z,75.95
2019-02-15T03:52:04.939Z,76.52
2019-02-15T03:54:36.370Z,76.96
2019-02-15T03:57:07.677Z,76.63
2019-02-15T03:59:39.187Z,76.51
2019-02-15T04:02:10.553Z,76.75
2019-02-15T04:04:41.816Z,77.04
2019-02-15T04:07:13.111Z,77.22
2019-02-15T04:09:44.380Z,77.69
2019-02-15T04:12:15.708Z,77.88
2019-02-15T04:14:46.854Z,77.86
2019-02-15T04:17:18.154Z,78.09
2019-02-15T04:19:49.478Z,78.27
2019-02-15T04:22:20.753Z,78.57
2019-02-15T04:24:52.068Z,78.94
2019-02-15T04:27:23.355Z,79.03
2019-02-15T04:29:54.560Z,79.06
2019-02-15T04:32:25.838Z,79.16
2019-02-15T04:34:57.095Z,79.26
2019-02-15T04:37:28.371Z,79.47
2019-02-15T04:39:59.690Z,79.85
2019-02-15T04:42:30.964Z,80.20
2019-02-15T04:45:02.254Z,80.55
2019-02-15T04:47:33.593Z,81.06
2019-02-15T04:50:04.963Z,81.52
2019-02-15T04:52:36.362Z,82.33
2019-02-15T04:55:08.083Z,82.19
2019-02-15T04:57:39.513Z,82.41
2019-02-15T05:00:10.961Z,82.82
2019-02-15T05:02:42.270Z,83.12
2019-02-15T05:05:13.540Z,82.99
2019-02-15T05:07:44.778Z,83.85
2019-02-15T05:10:16.057Z,84.16
2019-02-15T05:12:47.376Z,84.64
2019-02-15T05:15:18.658Z,85.25
2019-02-15T05:17:49.857Z,85.50
2019-02-15T05:20:21.219Z,85.85
2019-02-15T05:22:52.475Z,85.97
2019-02-15T05:25:23.788Z,86.04
2019-02-15T05:27:55.047Z,85.70
2019-02-15T05:30:26.328Z,85.74
2019-02-15T05:32:57.636Z,86.84
2019-02-15T05:35:28.951Z,86.62
2019-02-15T05:38:00.243Z,86.97
2019-02-15T05:40:31.641Z,87.19
2019-02-15T05:43:03.436Z,87.37
2019-02-15T05:45:34.773Z,87.62
2019-02-15T05:48:06.055Z,87.59
2019-02-15T05:50:37.388Z,87.22
2019-02-15T05:53:08.615Z,87.25
2019-02-15T05:55:39.952Z,87.35
2019-02-15T05:58:11.212Z,87.16
2019-02-15T06:00:42.485Z,86.64
2019-02-15T06:03:13.956Z,86.53
2019-02-15T06:05:45.247Z,86.83
2019-02-15T06:08:16.553Z,87.16
2019-02-15T06:10:47.828Z,87.15
2019-02-15T06:13:19.267Z,87.09
2019-02-15T06:15:50.556Z,87.24
2019-02-15T06:18:21.856Z,87.72
2019-02-15T06:20:53.192Z,87.96
2019-02-15T06:23:43.493Z,87.81
2019-02-15T06:26:14.745Z,87.70
2019-02-15T06:28:47.780Z,87.99
2019-02-15T06:31:22.180Z,88.16
2019-02-15T06:33:53.515Z,88.56
2019-02-15T06:36:26.353Z,88.83
2019-02-15T06:38:57.606Z,89.16
2019-02-15T06:41:28.872Z,89.61
2019-02-15T06:44:00.193Z,89.96
2019-02-15T06:46:31.509Z,90.09
2019-02-15T06:49:02.887Z,90.08
2019-02-15T06:51:34.051Z,90.08
2019-02-15T06:54:05.321Z,90.04
2019-02-15T06:56:36.621Z,90.01
2019-02-15T06:59:26.151Z,89.95
2019-02-15T07:02:07.745Z,89.93
2019-02-15T07:05:12.837Z,90.16
2019-02-15T07:07:44.210Z,90.22
2019-02-15T07:10:15.456Z,89.88
2019-02-15T07:12:46.796Z,89.82
2019-02-15T07:15:18.089Z,89.77
2019-02-15T07:17:49.435Z,89.62
2019-02-15T07:20:20.722Z,89.57
2019-02-15T07:22:53.212Z,89.46
2019-02-15T07:25:24.459Z,89.39
2019-02-15T07:27:55.735Z,89.08
2019-02-15T07:30:27.094Z,89.00
2019-02-15T07:32:58.374Z,88.62
2019-02-15T07:35:29.695Z,88.15
2019-02-15T07:38:00.992Z,87.93
2019-02-15T07:40:32.295Z,87.74
2019-02-15T07:43:03.744Z,87.69
2019-02-15T07:45:42.656Z,87.12
2019-02-15T07:48:08.009Z,86.89
2019-02-15T07:50:39.338Z,86.58
2019-02-15T07:53:10.595Z,86.18
2019-02-15T07:55:41.920Z,85.59
2019-02-15T07:58:13.250Z,84.60
2019-02-15T08:00:44.519Z,83.95
2019-02-15T08:03:15.847Z,83.34
2019-02-15T08:05:47.345Z,82.20
2019-02-15T08:08:18.615Z,82.82
2019-02-15T08:10:49.875Z,82.61
2019-02-15T08:13:21.163Z,77.70
2019-02-15T08:15:52.459Z,68.89
2019-02-15T08:18:23.740Z,62.19
2019-02-15T08:20:54.966Z,58.23
2019-02-15T08:23:26.216Z,57.10
2019-02-15T08:25:57.391Z,52.82
2019-02-15T08:28:28.617Z,51.27
2019-02-15T08:30:59.887Z,50.12
2019-02-15T08:33:31.162Z,47.57
2019-02-15T08:36:02.522Z,46.94
2019-02-15T08:38:33.816Z,44.63
2019-02-15T08:41:05.048Z,43.50
2019-02-15T08:43:36.343Z,43.78
2019-02-15T08:46:07.607Z,42.97
2019-02-15T08:48:45.860Z,42.46
2019-02-15T08:51:11.871Z,41.39
2019-02-15T08:53:43.178Z,42.20
2019-02-15T08:56:14.478Z,42.19
2019-02-15T08:58:45.730Z,41.80
2019-02-15T09:01:17.017Z,40.50
2019-02-15T09:03:48.289Z,40.46
2019-02-15T09:06:19.484Z,40.79
2019-02-15T09:08:53.614Z,39.87
2019-02-15T09:11:24.859Z,38.62
2019-02-15T09:13:56.136Z,37.28
2019-02-15T09:16:27.502Z,35.66
2019-02-15T09:18:58.801Z,36.27
2019-02-15T09:21:30.039Z,36.33
2019-02-15T09:24:01.276Z,35.81
2019-02-15T09:26:32.477Z,35.53
2019-02-15T09:29:07.245Z,35.54
2019-02-15T09:31:38.589Z,35.43
2019-02-15T09:34:09.839Z,35.54
2019-02-15T09:36:41.140Z,35.94
2019-02-15T09:39:12.427Z,36.54
2019-02-15T09:41:43.784Z,37.44
2019-02-15T09:44:15.031Z,37.68
2019-02-15T09:46:46.336Z,38.68
2019-02-15T09:49:17.608Z,40.31
2019-02-15T09:51:48.876Z,40.34
2019-02-15T09:54:20.175Z,40.36
2019-02-15T09:56:51.450Z,41.04
2019-02-15T09:59:22.655Z,40.89
2019-02-15T10:01:54.081Z,41.39
2019-02-15T10:04:25.406Z,41.52
2019-02-15T10:06:56.723Z,42.49
2019-02-15T10:09:28.077Z,41.94
2019-02-15T10:11:59.343Z,41.96
2019-02-15T10:14:30.646Z,41.83
2019-02-15T10:17:01.937Z,42.23
2019-02-15T10:19:33.235Z,42.20
2019-02-15T10:22:04.462Z,42.19
2019-02-15T10:24:35.767Z,41.70
2019-02-15T10:27:07.039Z,42.03
2019-02-15T10:29:38.431Z,41.73
2019-02-15T10:32:09.637Z,41.47
2019-02-15T10:34:40.894Z,41.41
2019-02-15T10:37:12.236Z,42.14
2019-02-15T10:39:43.493Z,41.99
2019-02-15T10:42:14.738Z,41.79
2019-02-15T10:44:45.935Z,41.82
2019-02-15T10:47:24.773Z,41.41
2019-02-15T10:49:50.049Z,41.68
2019-02-15T10:52:21.333Z,42.08
2019-02-15T10:54:52.590Z,41.26
2019-02-15T10:57:23.855Z,41.26
2019-02-15T10:59:55.032Z,39.80
2019-02-15T11:02:26.339Z,39.60
2019-02-15T11:04:57.602Z,39.80
2019-02-15T11:07:28.891Z,39.95
2019-02-15T11:10:00.140Z,39.35
2019-02-15T11:12:31.481Z,38.84
2019-02-15T11:15:02.750Z,39.46
2019-02-15T11:17:34.063Z,38.79
2019-02-15T11:20:05.550Z,38.80
2019-02-15T11:22:36.827Z,38.12
2019-02-15T11:25:09.824Z,38.65
2019-02-15T11:27:41.423Z,37.90
2019-02-15T11:30:14.731Z,37.73
2019-02-15T11:32:46.066Z,38.06
2019-02-15T11:35:17.309Z,38.20
2019-02-15T11:37:48.626Z,38.67
2019-02-15T11:40:19.878Z,36.78
2019-02-15T11:42:51.084Z,38.22
2019-02-15T11:45:22.260Z,38.85
2019-02-15T11:47:53.431Z,37.12
2019-02-15T11:50:24.726Z,37.25
2019-02-15T11:52:55.955Z,38.34
2019-02-15T11:55:27.256Z,36.71
2019-02-15T11:57:58.507Z,36.47
2019-02-15T12:00:48.795Z,36.50
2019-02-15T12:03:20.053Z,36.29
2019-02-15T12:05:51.340Z,36.00
2019-02-15T12:08:22.590Z,36.45
2019-02-15T12:10:53.853Z,35.33
2019-02-15T12:13:25.172Z,35.68
2019-02-15T12:15:56.423Z,35.90
2019-02-15T12:18:27.643Z,35.93
2019-02-15T12:20:58.910Z,35.60
2019-02-15T12:23:30.213Z,35.91
2019-02-15T12:26:01.490Z,35.97
2019-02-15T12:28:32.752Z,35.35
2019-02-15T12:31:04.106Z,35.67
2019-02-15T12:33:35.359Z,35.10
2019-02-15T12:36:06.588Z,34.67
2019-02-15T12:38:37.900Z,34.39
2019-02-15T12:41:09.143Z,35.39
2019-02-15T12:43:40.350Z,34.05
2019-02-15T12:46:11.601Z,33.94
2019-02-15T12:48:42.913Z,34.16
2019-02-15T12:51:14.203Z,34.36
2019-02-15T12:53:45.415Z,34.52
2019-02-15T12:56:16.607Z,34.88
2019-02-15T12:58:49.447Z,34.78
2019-02-15T13:01:20.810Z,34.99
2019-02-15T13:03:52.062Z,35.35
2019-02-15T13:06:28.645Z,35.34
2019-02-15T13:08:56.248Z,34.67
2019-02-15T13:11:27.555Z,34.93
2019-02-15T13:13:58.878Z,34.84
2019-02-15T13:16:30.224Z,34.99
2019-02-15T13:19:01.549Z,34.57
2019-02-15T13:21:32.817Z,34.37
2019-02-15T13:24:04.031Z,34.56
2019-02-15T13:26:35.323Z,34.09
2019-02-15T13:29:06.662Z,33.82
2019-02-15T13:31:37.923Z,34.43
2019-02-15T13:34:09.285Z,34.34
2019-02-15T13:36:40.578Z,33.83
2019-02-15T13:39:12.025Z,34.14
2019-02-15T13:41:43.324Z,32.85
2019-02-15T13:44:14.587Z,34.08
2019-02-15T13:46:45.862Z,33.25
2019-02-15T13:49:17.127Z,33.66
2019-02-15T13:51:48.481Z,33.92
2019-02-15T13:54:19.717Z,33.54
2019-02-15T13:56:50.985Z,32.35
2019-02-15T13:59:22.275Z,33.19
2019-02-15T14:01:54.605Z,32.70
2019-02-15T14:04:25.904Z,31.29
2019-02-15T14:06:58.379Z,31.05
2019-02-15T14:09:29.654Z,32.10
2019-02-15T14:12:02.963Z,31.82
2019-02-15T14:14:33.930Z,30.80
2019-02-15T14:17:05.376Z,31.58
2019-02-15T14:19:36.657Z,31.26
2019-02-15T14:22:08.016Z,30.52
2019-02-15T14:24:39.346Z,30.57
2019-02-15T14:27:10.646Z,30.99
2019-02-15T14:29:41.884Z,30.60
2019-02-15T14:32:13.175Z,30.70
2019-02-15T14:34:44.474Z,29.83
2019-02-15T14:37:15.748Z,30.36
2019-02-15T14:39:47.083Z,30.27
2019-02-15T14:42:18.238Z,30.09
2019-02-15T14:44:49.548Z,30.73
2019-02-15T14:47:20.719Z,31.12
2019-02-15T14:49:52.005Z,30.72
2019-02-15T14:52:23.363Z,30.16
2019-02-15T14:54:54.598Z,30.25
2019-02-15T14:57:25.852Z,30.27
2019-02-15T14:59:57.198Z,29.69
2019-02-15T15:02:28.476Z,29.97
2019-02-15T15:04:59.694Z,30.20
2019-02-15T15:07:31.019Z,30.05
2019-02-15T15:10:02.289Z,31.42
2019-02-15T15:12:33.563Z,32.04
2019-02-15T15:15:05.067Z,32.35
2019-02-15T15:17:36.361Z,32.44
2019-02-15T15:20:09.376Z,32.44
2019-02-15T15:22:40.695Z,32.36
2019-02-15T15:25:12.869Z,33.03
2019-02-15T15:27:44.199Z,32.50
2019-02-15T15:30:15.600Z,33.22
2019-02-15T15:32:46.856Z,33.77
2019-02-15T15:35:18.189Z,33.90
2019-02-15T15:37:49.444Z,34.04
2019-02-15T15:40:20.715Z,34.18
2019-02-15T15:42:51.942Z,34.18
2019-02-15T15:45:23.271Z,34.10
2019-02-15T15:47:54.531Z,34.40
2019-02-15T15:50:25.850Z,34.52
2019-02-15T15:52:57.125Z,34.40
2019-02-15T15:55:28.373Z,34.18
2019-02-15T15:57:59.678Z,34.12
2019-02-15T16:00:38.642Z,33.76
2019-02-15T16:03:04.078Z,33.19
2019-02-15T16:05:35.381Z,33.52
2019-02-15T16:08:06.646Z,32.96
2019-02-15T16:10:38.012Z,33.34
2019-02-15T16:13:09.373Z,33.02
2019-02-15T16:15:40.667Z,33.44
2019-02-15T16:18:11.972Z,33.56
2019-02-15T16:20:43.278Z,33.97
2019-02-15T16:23:14.700Z,34.03
2019-02-15T16:25:46.217Z,34.44
2019-02-15T16:28:17.512Z,34.67
2019-02-15T16:30:48.818Z,35.37
2019-02-15T16:33:20.190Z,36.00
2019-02-15T16:35:51.489Z,35.85
2019-02-15T16:38:22.776Z,37.75
2019-02-15T16:40:54.084Z,36.98
2019-02-15T16:43:25.514Z,38.31
2019-02-15T16:45:56.915Z,39.34
2019-02-15T16:48:28.196Z,38.63
2019-02-15T16:50:59.462Z,38.40
2019-02-15T16:53:30.818Z,38.04
2019-02-15T16:56:02.194Z,39.16
2019-02-15T16:58:33.625Z,39.94
2019-02-15T17:01:04.930Z,39.88
2019-02-15T17:03:36.171Z,41.27
2019-02-15T17:06:07.557Z,41.29
2019-02-15T17:08:39.150Z,42.45
2019-02-15T17:11:10.501Z,43.02
2019-02-15T17:13:41.875Z,43.83
2019-02-15T17:16:13.174Z,45.12
2019-02-15T17:18:51.337Z,44.34
2019-02-15T17:21:17.500Z,43.66
2019-02-15T17:23:48.817Z,44.01
2019-02-15T17:26:20.148Z,44.90
2019-02-15T17:28:51.485Z,45.72
2019-02-15T17:31:22.837Z,46.00
2019-02-15T17:33:54.134Z,47.52
2019-02-15T17:36:25.533Z,46.33
2019-02-15T17:38:57.089Z,46.43
2019-02-15T17:41:28.485Z,46.12
2019-02-15T17:43:59.842Z,45.73
2019-02-15T17:46:31.146Z,45.35
2019-02-15T17:49:03.409Z,45.23
2019-02-15T17:51:34.752Z,45.39
2019-02-15T17:54:06.103Z,44.43
2019-02-15T17:56:37.322Z,45.15
2019-02-15T17:59:08.613Z,46.53
2019-02-15T18:01:39.962Z,48.13
2019-02-15T18:04:11.472Z,47.46
2019-02-15T18:06:42.767Z,46.92
2019-02-15T18:09:14.071Z,47.20
2019-02-15T18:11:45.369Z,47.63
2019-02-15T18:14:16.695Z,48.32
2019-02-15T18:16:48.157Z,48.24
2019-02-15T18:19:19.454Z,48.62
2019-02-15T18:21:50.776Z,48.88
2019-02-15T18:24:22.049Z,48.75
2019-02-15T18:26:53.444Z,48.76
2019-02-15T18:29:24.762Z,47.83
2019-02-15T18:31:56.066Z,48.21
2019-02-15T18:34:27.560Z,48.66
2019-02-15T18:36:58.962Z,49.23
2019-02-15T18:39:30.427Z,48.21
2019-02-15T18:42:01.740Z,47.51
2019-02-15T18:44:33.275Z,47.53
2019-02-15T18:47:04.989Z,47.41
2019-02-15T18:49:36.623Z,47.10
2019-02-15T18:52:08.181Z,47.12
2019-02-15T18:54:39.629Z,46.85
2019-02-15T18:57:11.440Z,46.60
2019-02-15T18:59:46.290Z,46.92
2019-02-15T19:02:18.218Z,47.97
2019-02-15T19:04:49.618Z,48.58
2019-02-15T19:07:21.010Z,47.86
2019-02-15T19:09:52.498Z,47.80
2019-02-15T19:12:23.782Z,49.04
2019-02-15T19:14:55.157Z,48.83
2019-02-15T19:17:26.557Z,49.02
2019-02-15T19:19:57.983Z,49.96
2019-02-15T19:22:29.358Z,50.20
2019-02-15T19:25:00.703Z,50.00
2019-02-15T19:27:32.150Z,49.76
2019-02-15T19:30:03.997Z,50.83
2019-02-15T19:32:35.339Z,51.05
2019-02-15T19:35:07.516Z,51.32
2019-02-15T19:37:39.061Z,51.79
2019-02-15T19:40:12.853Z,51.81
2019-02-15T19:42:46.644Z,51.96
2019-02-15T19:45:18.145Z,52.44
2019-02-15T19:47:49.555Z,52.00
2019-02-15T19:50:21.037Z,53.38
2019-02-15T19:52:52.581Z,53.35
2019-02-15T19:55:24.003Z,52.83
2019-02-15T19:57:55.423Z,52.80
2019-02-15T20:00:26.948Z,53.18
2019-02-15T20:02:58.367Z,52.78
2019-02-15T20:05:29.641Z,53.18
2019-02-15T20:08:01.111Z,53.67
2019-02-15T20:10:32.575Z,53.80
2019-02-15T20:13:04.002Z,53.76
2019-02-15T20:15:35.437Z,53.73
2019-02-15T20:18:06.876Z,54.08
2019-02-15T20:20:38.271Z,53.78
2019-02-15T20:23:09.570Z,54.05
2019-02-15T20:25:40.948Z,54.02
2019-02-15T20:28:14.259Z,53.95
2019-02-15T20:30:45.659Z,54.83
2019-02-15T20:33:17.056Z,55.51
2019-02-15T20:35:48.531Z,56.18
2019-02-15T20:38:21.511Z,56.55
2019-02-15T20:40:52.800Z,57.21
2019-02-15T20:43:24.404Z,56.93
2019-02-15T20:45:55.864Z,56.32
2019-02-15T20:48:27.392Z,55.67
2019-02-15T20:50:58.810Z,54.97
2019-02-15T20:53:30.063Z,55.25
2019-02-15T20:56:01.517Z,54.86
2019-02-15T20:58:33.026Z,55.12
2019-02-15T21:01:04.454Z,55.64
2019-02-15T21:03:35.823Z,56.60
2019-02-15T21:06:07.378Z,56.58
2019-02-15T21:08:38.733Z,55.28
2019-02-15T21:11:10.032Z,55.41
2019-02-15T21:13:41.369Z,56.61
2019-02-15T21:16:12.611Z,55.76
2019-02-15T21:18:43.962Z,55.86
2019-02-15T21:21:15.298Z,55.29
2019-02-15T21:23:46.649Z,55.12
2019-02-15T21:26:17.913Z,57.77
2019-02-15T21:28:49.809Z,58.29
2019-02-15T21:31:21.017Z,58.81
2019-02-15T21:33:52.352Z,58.25
2019-02-15T21:36:23.685Z,57.44
2019-02-15T21:38:54.962Z,57.61
2019-02-15T21:41:26.271Z,58.34
2019-02-15T21:43:57.565Z,58.64
2019-02-15T21:46:28.918Z,58.07
2019-02-15T21:49:00.228Z,58.79
2019-02-15T21:51:31.524Z,59.49
2019-02-15T21:54:02.884Z,59.71
2019-02-15T21:56:34.232Z,61.33
2019-02-15T21:59:05.592Z,60.59
2019-02-15T22:01:36.949Z,60.74
2019-02-15T22:04:08.251Z,60.46
2019-02-15T22:06:39.584Z,59.91
2019-02-15T22:09:11.446Z,61.30
2019-02-15T22:11:42.880Z,62.57
2019-02-15T22:14:14.249Z,63.09
2019-02-15T22:16:45.579Z,63.64
2019-02-15T22:19:16.896Z,63.81
2019-02-15T22:21:48.263Z,63.88
2019-02-15T22:24:19.575Z,62.14
2019-02-15T22:26:50.979Z,62.94
2019-02-15T22:29:22.403Z,63.51
2019-02-15T22:31:53.721Z,64.02
2019-02-15T22:34:25.593Z,64.32
2019-02-15T22:36:56.928Z,65.24
2019-02-15T22:39:28.113Z,65.01
2019-02-15T22:41:59.399Z,63.53
2019-02-15T22:44:30.715Z,63.08
2019-02-15T22:47:02.079Z,63.85
2019-02-15T22:49:43.096Z,64.94
2019-02-15T22:52:06.504Z,65.95
2019-02-15T22:54:37.791Z,66.43
2019-02-15T22:57:09.124Z,67.66
2019-02-15T22:59:40.464Z,68.17
2019-02-15T23:02:13.588Z,67.68
2019-02-15T23:04:44.888Z,67.95
2019-02-15T23:07:18.794Z,68.15
2019-02-15T23:09:50.254Z,68.18
2019-02-15T23:12:21.509Z,68.60
2019-02-15T23:14:52.862Z,69.46
2019-02-15T23:17:24.367Z,69.75
2019-02-15T23:19:55.926Z,69.81
2019-02-15T23:22:27.261Z,70.01
2019-02-15T23:24:58.472Z,70.39
2019-02-15T23:27:29.847Z,70.12
2019-02-15T23:30:01.202Z,70.75
2019-02-15T23:32:32.515Z,71.19
2019-02-15T23:35:03.869Z,71.47
2019-02-15T23:37:35.202Z,72.04
2019-02-15T23:40:06.653Z,71.77
2019-02-15T23:42:38.843Z,71.24
2019-02-15T23:45:10.054Z,71.90
2019-02-15T23:47:44.163Z,72.42
2019-02-15T23:50:15.443Z,73.01
2019-02-15T23:52:46.748Z,72.64
2019-02-15T23:55:18.362Z,72.73
2019-02-15T23:57:49.629Z,72.79
